sensor_id;sensor_type;location;lat;lon;timestamp;pressure;altitude;pressure_sealevel;temperature;humidity
55271;BME280;41132;47.162;9.470;2023-04-05T00:02:19;96829.91;;;2.69;73.70
55271;BME280;41132;47.162;9.470;2023-04-05T00:04:45;96839.91;;;2.88;74.20
55271;BME280;41132;47.162;9.470;2023-04-05T00:07:18;96810.44;;;2.76;71.97
55271;BME280;41132;47.162;9.470;2023-04-05T00:09:45;96817.38;;;2.76;74.81
55271;BME280;41132;47.162;9.470;2023-04-05T00:12:11;96843.09;;;2.79;75.61
55271;BME280;41132;47.162;9.470;2023-04-05T00:14:37;96843.97;;;2.92;72.23
55271;BME280;41132;47.162;9.470;2023-04-05T00:17:02;96845.69;;;2.79;75.37
55271;BME280;41132;47.162;9.470;2023-04-05T00:19:28;96831.47;;;2.71;73.66
55271;BME280;41132;47.162;9.470;2023-04-05T00:21:54;96846.03;;;2.87;71.47
55271;BME280;41132;47.162;9.470;2023-04-05T00:24:19;96844.78;;;2.92;70.95
55271;BME280;41132;47.162;9.470;2023-04-05T00:26:49;96819.59;;;2.82;69.75
55271;BME280;41132;47.162;9.470;2023-04-05T00:29:14;96829.22;;;2.92;69.78
55271;BME280;41132;47.162;9.470;2023-04-05T00:31:39;96827.38;;;2.95;68.86
55271;BME280;41132;47.162;9.470;2023-04-05T00:34:05;96815.09;;;2.84;68.00
55271;BME280;41132;47.162;9.470;2023-04-05T00:36:33;96837.25;;;3.02;67.71
55271;BME280;41132;47.162;9.470;2023-04-05T00:38:58;96831.13;;;3.03;67.82
55271;BME280;41132;47.162;9.470;2023-04-05T00:41:24;96828.75;;;3.00;67.53
55271;BME280;41132;47.162;9.470;2023-04-05T00:43:49;96835.88;;;2.97;69.22
55271;BME280;41132;47.162;9.470;2023-04-05T00:46:15;96829.88;;;2.96;71.25
55271;BME280;41132;47.162;9.470;2023-04-05T00:48:41;96834.41;;;2.92;71.95
55271;BME280;41132;47.162;9.470;2023-04-05T00:51:06;96820.41;;;2.82;74.97
55271;BME280;41132;47.162;9.470;2023-04-05T00:53:36;96810.97;;;2.81;72.89
55271;BME280;41132;47.162;9.470;2023-04-05T00:56:01;96816.72;;;2.59;76.60
55271;BME280;41132;47.162;9.470;2023-04-05T00:58:28;96814.97;;;2.60;78.21
55271;BME280;41132;47.162;9.470;2023-04-05T01:01:17;96805.72;;;2.56;77.36
55271;BME280;41132;47.162;9.470;2023-04-05T01:03:50;96816.44;;;2.77;73.51
55271;BME280;41132;47.162;9.470;2023-04-05T01:09:16;96808.50;;;2.80;75.10
55271;BME280;41132;47.162;9.470;2023-04-05T01:11:46;96803.16;;;2.68;80.15
55271;BME280;41132;47.162;9.470;2023-04-05T01:14:12;96803.56;;;2.62;78.03
55271;BME280;41132;47.162;9.470;2023-04-05T01:16:38;96792.38;;;2.62;76.05
55271;BME280;41132;47.162;9.470;2023-04-05T01:19:03;96800.44;;;2.70;74.38
55271;BME280;41132;47.162;9.470;2023-04-05T01:24:23;96801.16;;;2.59;78.50
55271;BME280;41132;47.162;9.470;2023-04-05T01:27:03;96792.03;;;2.54;78.99
55271;BME280;41132;47.162;9.470;2023-04-05T01:29:45;96793.19;;;2.62;78.60
55271;BME280;41132;47.162;9.470;2023-04-05T01:32:17;96790.69;;;2.61;78.00
55271;BME280;41132;47.162;9.470;2023-04-05T01:34:53;96790.38;;;2.65;76.53
55271;BME280;41132;47.162;9.470;2023-04-05T01:37:23;96784.22;;;2.41;83.09
55271;BME280;41132;47.162;9.470;2023-04-05T01:39:51;96784.22;;;2.41;79.27
55271;BME280;41132;47.162;9.470;2023-04-05T01:42:24;96782.47;;;2.54;77.28
55271;BME280;41132;47.162;9.470;2023-04-05T01:44:52;96775.44;;;2.56;77.70
55271;BME280;41132;47.162;9.470;2023-04-05T01:47:18;96778.44;;;2.50;76.97
55271;BME280;41132;47.162;9.470;2023-04-05T01:49:44;96778.63;;;2.47;77.16
55271;BME280;41132;47.162;9.470;2023-04-05T01:52:09;96777.66;;;2.35;80.33
55271;BME280;41132;47.162;9.470;2023-04-05T01:54:35;96758.88;;;2.32;77.64
55271;BME280;41132;47.162;9.470;2023-04-05T01:57:00;96771.28;;;2.41;76.56
55271;BME280;41132;47.162;9.470;2023-04-05T01:59:25;96766.56;;;2.33;77.90
55271;BME280;41132;47.162;9.470;2023-04-05T02:01:51;96780.44;;;2.32;78.08
55271;BME280;41132;47.162;9.470;2023-04-05T02:04:16;96779.88;;;2.27;78.41
55271;BME280;41132;47.162;9.470;2023-04-05T02:06:41;96783.19;;;2.43;73.11
55271;BME280;41132;47.162;9.470;2023-04-05T02:09:07;96775.88;;;2.36;76.18
55271;BME280;41132;47.162;9.470;2023-04-05T02:11:32;96778.31;;;2.39;74.67
55271;BME280;41132;47.162;9.470;2023-04-05T02:13:58;96766.47;;;2.35;75.37
55271;BME280;41132;47.162;9.470;2023-04-05T02:16:23;96777.81;;;2.46;75.10
55271;BME280;41132;47.162;9.470;2023-04-05T02:18:52;96764.72;;;2.35;75.15
55271;BME280;41132;47.162;9.470;2023-04-05T02:21:22;96759.38;;;2.24;75.98
55271;BME280;41132;47.162;9.470;2023-04-05T02:23:48;96757.13;;;2.05;81.04
55271;BME280;41132;47.162;9.470;2023-04-05T02:26:14;96753.66;;;1.92;84.07
55271;BME280;41132;47.162;9.470;2023-04-05T02:28:39;96755.00;;;2.12;80.32
55271;BME280;41132;47.162;9.470;2023-04-05T02:31:12;96755.31;;;2.20;79.37
55271;BME280;41132;47.162;9.470;2023-04-05T02:33:37;96740.38;;;2.11;78.69
55271;BME280;41132;47.162;9.470;2023-04-05T02:36:04;96769.81;;;2.22;77.80
55271;BME280;41132;47.162;9.470;2023-04-05T02:38:31;96764.84;;;2.19;80.23
55271;BME280;41132;47.162;9.470;2023-04-05T02:40:57;96756.56;;;2.00;82.87
55271;BME280;41132;47.162;9.470;2023-04-05T02:43:22;96756.03;;;2.09;78.80
55271;BME280;41132;47.162;9.470;2023-04-05T02:45:47;96756.72;;;2.11;78.23
55271;BME280;41132;47.162;9.470;2023-04-05T02:48:13;96751.75;;;2.08;78.26
55271;BME280;41132;47.162;9.470;2023-04-05T02:50:38;96747.34;;;1.96;80.86
55271;BME280;41132;47.162;9.470;2023-04-05T02:53:03;96750.38;;;1.75;80.67
55271;BME280;41132;47.162;9.470;2023-04-05T02:55:29;96750.31;;;1.90;79.51
55271;BME280;41132;47.162;9.470;2023-04-05T02:57:58;96747.16;;;1.99;76.76
55271;BME280;41132;47.162;9.470;2023-04-05T03:00:27;96740.88;;;2.03;77.20
55271;BME280;41132;47.162;9.470;2023-04-05T03:02:53;96741.78;;;2.02;75.04
55271;BME280;41132;47.162;9.470;2023-04-05T03:05:19;96730.66;;;1.87;78.68
55271;BME280;41132;47.162;9.470;2023-04-05T03:07:46;96736.00;;;1.84;77.21
55271;BME280;41132;47.162;9.470;2023-04-05T03:10:15;96730.97;;;1.95;76.14
55271;BME280;41132;47.162;9.470;2023-04-05T03:12:44;96740.34;;;1.98;75.83
55271;BME280;41132;47.162;9.470;2023-04-05T03:15:10;96729.56;;;2.04;74.09
55271;BME280;41132;47.162;9.470;2023-04-05T03:17:35;96730.88;;;1.97;75.14
55271;BME280;41132;47.162;9.470;2023-04-05T03:20:02;96734.59;;;1.93;75.64
55271;BME280;41132;47.162;9.470;2023-04-05T03:22:31;96736.16;;;1.95;74.99
55271;BME280;41132;47.162;9.470;2023-04-05T03:24:57;96733.69;;;1.94;74.11
55271;BME280;41132;47.162;9.470;2023-04-05T03:27:24;96728.88;;;1.87;76.05
55271;BME280;41132;47.162;9.470;2023-04-05T03:29:50;96728.50;;;1.79;76.02
55271;BME280;41132;47.162;9.470;2023-04-05T03:32:15;96738.50;;;1.85;75.85
55271;BME280;41132;47.162;9.470;2023-04-05T03:34:41;96716.44;;;1.80;76.44
55271;BME280;41132;47.162;9.470;2023-04-05T03:37:06;96723.63;;;1.75;77.43
55271;BME280;41132;47.162;9.470;2023-04-05T03:39:32;96718.41;;;1.48;81.18
55271;BME280;41132;47.162;9.470;2023-04-05T03:41:57;96722.66;;;1.49;80.54
55271;BME280;41132;47.162;9.470;2023-04-05T03:44:22;96712.41;;;1.61;78.81
55271;BME280;41132;47.162;9.470;2023-04-05T03:46:48;96701.41;;;1.58;79.00
55271;BME280;41132;47.162;9.470;2023-04-05T03:49:13;96712.13;;;1.52;82.22
55271;BME280;41132;47.162;9.470;2023-04-05T03:51:40;96705.59;;;1.46;80.88
55271;BME280;41132;47.162;9.470;2023-04-05T03:54:06;96697.72;;;1.48;79.04
55271;BME280;41132;47.162;9.470;2023-04-05T03:56:31;96711.22;;;1.53;79.04
55271;BME280;41132;47.162;9.470;2023-04-05T03:58:57;96686.53;;;1.47;78.55
55271;BME280;41132;47.162;9.470;2023-04-05T04:01:22;96700.22;;;1.49;79.46
55271;BME280;41132;47.162;9.470;2023-04-05T04:03:48;96688.75;;;1.53;78.46
55271;BME280;41132;47.162;9.470;2023-04-05T04:06:13;96701.53;;;1.42;80.70
55271;BME280;41132;47.162;9.470;2023-04-05T04:08:39;96701.69;;;1.53;78.33
55271;BME280;41132;47.162;9.470;2023-04-05T04:11:04;96707.59;;;1.55;77.38
55271;BME280;41132;47.162;9.470;2023-04-05T04:13:30;96696.31;;;1.56;77.67
55271;BME280;41132;47.162;9.470;2023-04-05T04:15:56;96698.81;;;1.58;77.10
55271;BME280;41132;47.162;9.470;2023-04-05T04:18:21;96692.41;;;1.36;79.08
55271;BME280;41132;47.162;9.470;2023-04-05T04:20:47;96675.94;;;1.37;77.48
55271;BME280;41132;47.162;9.470;2023-04-05T04:23:12;96680.16;;;1.38;77.22
55271;BME280;41132;47.162;9.470;2023-04-05T04:25:38;96694.59;;;1.57;76.26
55271;BME280;41132;47.162;9.470;2023-04-05T04:28:05;96693.69;;;1.43;78.30
55271;BME280;41132;47.162;9.470;2023-04-05T04:30:32;96686.75;;;1.44;76.65
55271;BME280;41132;47.162;9.470;2023-04-05T04:32:59;96689.56;;;1.54;75.22
55271;BME280;41132;47.162;9.470;2023-04-05T04:35:28;96695.25;;;1.46;77.64
55271;BME280;41132;47.162;9.470;2023-04-05T04:37:59;96702.19;;;1.45;79.01
55271;BME280;41132;47.162;9.470;2023-04-05T04:40:29;96693.09;;;1.38;78.32
55271;BME280;41132;47.162;9.470;2023-04-05T04:43:05;96701.53;;;1.28;80.03
55271;BME280;41132;47.162;9.470;2023-04-05T04:45:34;96707.53;;;1.28;83.42
55271;BME280;41132;47.162;9.470;2023-04-05T04:48:02;96714.56;;;1.12;84.68
55271;BME280;41132;47.162;9.470;2023-04-05T04:50:29;96701.72;;;1.24;81.36
55271;BME280;41132;47.162;9.470;2023-04-05T04:52:56;96698.22;;;1.25;81.63
55271;BME280;41132;47.162;9.470;2023-04-05T04:55:22;96705.84;;;1.27;82.15
55271;BME280;41132;47.162;9.470;2023-04-05T04:57:54;96706.34;;;1.19;84.52
55271;BME280;41132;47.162;9.470;2023-04-05T05:00:21;96716.56;;;1.07;85.52
55271;BME280;41132;47.162;9.470;2023-04-05T05:02:47;96722.03;;;1.02;85.88
55271;BME280;41132;47.162;9.470;2023-04-05T05:05:12;96716.84;;;1.02;84.63
55271;BME280;41132;47.162;9.470;2023-04-05T05:07:39;96725.81;;;1.11;83.09
55271;BME280;41132;47.162;9.470;2023-04-05T05:10:12;96730.25;;;1.09;84.40
55271;BME280;41132;47.162;9.470;2023-04-05T05:12:40;96726.63;;;0.97;87.04
55271;BME280;41132;47.162;9.470;2023-04-05T05:15:07;96724.53;;;0.89;87.84
55271;BME280;41132;47.162;9.470;2023-04-05T05:17:32;96722.75;;;0.75;87.63
55271;BME280;41132;47.162;9.470;2023-04-05T05:19:59;96733.03;;;0.61;88.04
55271;BME280;41132;47.162;9.470;2023-04-05T05:22:25;96725.97;;;0.34;89.43
55271;BME280;41132;47.162;9.470;2023-04-05T05:24:51;96729.72;;;0.29;91.76
55271;BME280;41132;47.162;9.470;2023-04-05T05:27:17;96711.91;;;0.24;92.43
55271;BME280;41132;47.162;9.470;2023-04-05T05:29:42;96721.88;;;0.30;93.36
55271;BME280;41132;47.162;9.470;2023-04-05T05:32:08;96712.38;;;0.31;92.64
55271;BME280;41132;47.162;9.470;2023-04-05T05:34:38;96723.88;;;0.41;92.00
55271;BME280;41132;47.162;9.470;2023-04-05T05:37:04;96711.84;;;0.40;91.98
55271;BME280;41132;47.162;9.470;2023-04-05T05:39:30;96728.13;;;0.56;93.34
55271;BME280;41132;47.162;9.470;2023-04-05T05:41:55;96729.25;;;0.52;93.61
55271;BME280;41132;47.162;9.470;2023-04-05T05:44:20;96713.34;;;0.44;92.29
55271;BME280;41132;47.162;9.470;2023-04-05T05:46:46;96718.53;;;0.44;92.82
55271;BME280;41132;47.162;9.470;2023-04-05T05:49:11;96736.84;;;0.70;91.64
55271;BME280;41132;47.162;9.470;2023-04-05T05:51:37;96739.41;;;0.70;90.60
55271;BME280;41132;47.162;9.470;2023-04-05T05:54:02;96741.53;;;0.63;91.09
55271;BME280;41132;47.162;9.470;2023-04-05T05:56:27;96735.47;;;0.78;89.58
55271;BME280;41132;47.162;9.470;2023-04-05T05:58:53;96741.63;;;0.61;91.97
55271;BME280;41132;47.162;9.470;2023-04-05T06:01:18;96737.44;;;0.89;88.10
55271;BME280;41132;47.162;9.470;2023-04-05T06:03:47;96738.06;;;0.78;89.88
55271;BME280;41132;47.162;9.470;2023-04-05T06:06:12;96734.47;;;0.81;89.18
55271;BME280;41132;47.162;9.470;2023-04-05T06:08:38;96733.72;;;0.79;90.58
55271;BME280;41132;47.162;9.470;2023-04-05T06:11:03;96732.00;;;0.63;91.39
55271;BME280;41132;47.162;9.470;2023-04-05T06:13:29;96735.84;;;0.42;91.53
55271;BME280;41132;47.162;9.470;2023-04-05T06:15:54;96715.00;;;0.45;92.63
55271;BME280;41132;47.162;9.470;2023-04-05T06:18:20;96709.56;;;0.50;91.39
55271;BME280;41132;47.162;9.470;2023-04-05T06:20:45;96732.00;;;1.22;88.89
55271;BME280;41132;47.162;9.470;2023-04-05T06:23:11;96725.22;;;1.63;90.03
55271;BME280;41132;47.162;9.470;2023-04-05T06:25:36;96723.25;;;1.81;88.17
55271;BME280;41132;47.162;9.470;2023-04-05T06:28:03;96722.72;;;1.76;88.26
55271;BME280;41132;47.162;9.470;2023-04-05T06:30:28;96717.22;;;2.22;87.64
55271;BME280;41132;47.162;9.470;2023-04-05T06:32:54;96722.63;;;2.84;87.46
55271;BME280;41132;47.162;9.470;2023-04-05T06:35:20;96727.63;;;2.35;81.45
55271;BME280;41132;47.162;9.470;2023-04-05T06:37:46;96720.41;;;2.53;80.19
55271;BME280;41132;47.162;9.470;2023-04-05T06:40:12;96703.13;;;2.79;80.73
55271;BME280;41132;47.162;9.470;2023-04-05T06:42:37;96721.69;;;3.11;77.96
55271;BME280;41132;47.162;9.470;2023-04-05T06:45:03;96730.31;;;3.11;78.21
55271;BME280;41132;47.162;9.470;2023-04-05T06:47:35;96728.34;;;3.15;76.33
55271;BME280;41132;47.162;9.470;2023-04-05T06:50:02;96714.00;;;3.35;77.45
55271;BME280;41132;47.162;9.470;2023-04-05T06:52:28;96729.84;;;3.56;76.59
55271;BME280;41132;47.162;9.470;2023-04-05T06:54:54;96724.06;;;3.52;75.94
55271;BME280;41132;47.162;9.470;2023-04-05T06:57:20;96727.88;;;3.60;74.49
55271;BME280;41132;47.162;9.470;2023-04-05T06:59:46;96725.09;;;3.50;77.02
55271;BME280;41132;47.162;9.470;2023-04-05T07:02:11;96722.94;;;3.44;75.12
55271;BME280;41132;47.162;9.470;2023-04-05T07:04:38;96719.78;;;3.88;74.25
55271;BME280;41132;47.162;9.470;2023-04-05T07:07:03;96713.28;;;4.31;71.62
55271;BME280;41132;47.162;9.470;2023-04-05T07:09:30;96714.16;;;4.43;70.22
55271;BME280;41132;47.162;9.470;2023-04-05T07:11:57;96722.63;;;5.15;65.04
55271;BME280;41132;47.162;9.470;2023-04-05T07:14:22;96721.03;;;4.44;65.08
55271;BME280;41132;47.162;9.470;2023-04-05T07:16:48;96721.63;;;4.47;66.25
55271;BME280;41132;47.162;9.470;2023-04-05T07:19:13;96711.81;;;4.39;66.57
55271;BME280;41132;47.162;9.470;2023-04-05T07:21:39;96714.84;;;4.69;63.87
55271;BME280;41132;47.162;9.470;2023-04-05T07:24:05;96704.53;;;5.02;66.31
55271;BME280;41132;47.162;9.470;2023-04-05T07:26:31;96720.50;;;5.09;64.02
55271;BME280;41132;47.162;9.470;2023-04-05T07:29:00;96719.50;;;4.88;67.61
55271;BME280;41132;47.162;9.470;2023-04-05T07:31:26;96721.09;;;5.13;64.67
55271;BME280;41132;47.162;9.470;2023-04-05T07:33:51;96706.25;;;4.79;62.89
55271;BME280;41132;47.162;9.470;2023-04-05T07:36:16;96731.84;;;5.08;65.63
55271;BME280;41132;47.162;9.470;2023-04-05T07:38:42;96724.38;;;5.03;66.94
55271;BME280;41132;47.162;9.470;2023-04-05T07:41:09;96722.41;;;5.07;61.62
55271;BME280;41132;47.162;9.470;2023-04-05T07:43:35;96725.31;;;4.91;60.24
55271;BME280;41132;47.162;9.470;2023-04-05T07:46:03;96720.50;;;5.09;62.33
55271;BME280;41132;47.162;9.470;2023-04-05T07:48:29;96730.44;;;5.27;60.68
55271;BME280;41132;47.162;9.470;2023-04-05T07:50:55;96716.25;;;5.42;64.69
55271;BME280;41132;47.162;9.470;2023-04-05T07:53:20;96719.09;;;5.61;61.97
55271;BME280;41132;47.162;9.470;2023-04-05T07:55:45;96712.09;;;5.73;60.78
55271;BME280;41132;47.162;9.470;2023-04-05T07:58:11;96701.34;;;5.44;59.29
55271;BME280;41132;47.162;9.470;2023-04-05T08:00:37;96719.78;;;5.07;58.49
55271;BME280;41132;47.162;9.470;2023-04-05T08:03:02;96708.31;;;5.89;61.45
55271;BME280;41132;47.162;9.470;2023-04-05T08:05:29;96720.13;;;5.93;61.45
55271;BME280;41132;47.162;9.470;2023-04-05T08:07:55;96712.53;;;6.44;62.24
55271;BME280;41132;47.162;9.470;2023-04-05T08:10:23;96689.91;;;6.13;59.60
55271;BME280;41132;47.162;9.470;2023-04-05T08:12:48;96715.88;;;6.03;58.39
55271;BME280;41132;47.162;9.470;2023-04-05T08:15:13;96718.31;;;6.80;63.69
55271;BME280;41132;47.162;9.470;2023-04-05T08:17:39;96704.34;;;6.17;57.13
55271;BME280;41132;47.162;9.470;2023-04-05T08:20:05;96702.31;;;6.53;61.57
55271;BME280;41132;47.162;9.470;2023-04-05T08:22:31;96701.31;;;7.07;61.30
55271;BME280;41132;47.162;9.470;2023-04-05T08:24:56;96714.22;;;7.08;60.83
55271;BME280;41132;47.162;9.470;2023-04-05T08:27:21;96707.47;;;7.27;58.31
55271;BME280;41132;47.162;9.470;2023-04-05T08:29:47;96707.81;;;6.92;58.85
55271;BME280;41132;47.162;9.470;2023-04-05T08:32:12;96706.16;;;7.11;57.12
55271;BME280;41132;47.162;9.470;2023-04-05T08:34:37;96704.22;;;6.51;58.83
55271;BME280;41132;47.162;9.470;2023-04-05T08:37:03;96709.72;;;6.68;59.44
55271;BME280;41132;47.162;9.470;2023-04-05T08:39:28;96706.53;;;6.86;60.44
55271;BME280;41132;47.162;9.470;2023-04-05T08:42:17;96705.19;;;6.92;57.67
55271;BME280;41132;47.162;9.470;2023-04-05T08:44:44;96702.94;;;7.69;57.45
55271;BME280;41132;47.162;9.470;2023-04-05T08:47:11;96711.56;;;6.99;56.82
55271;BME280;41132;47.162;9.470;2023-04-05T08:49:44;96709.69;;;7.31;59.57
55271;BME280;41132;47.162;9.470;2023-04-05T08:52:10;96702.25;;;7.27;55.44
55271;BME280;41132;47.162;9.470;2023-04-05T08:54:36;96705.94;;;8.05;54.30
55271;BME280;41132;47.162;9.470;2023-04-05T08:57:02;96702.16;;;7.79;53.77
55271;BME280;41132;47.162;9.470;2023-04-05T08:59:31;96694.63;;;7.14;53.22
55271;BME280;41132;47.162;9.470;2023-04-05T09:02:00;96687.34;;;7.89;55.56
55271;BME280;41132;47.162;9.470;2023-04-05T09:04:30;96701.59;;;7.75;54.77
55271;BME280;41132;47.162;9.470;2023-04-05T09:06:57;96704.34;;;7.73;53.47
55271;BME280;41132;47.162;9.470;2023-04-05T09:09:24;96703.34;;;8.25;54.52
55271;BME280;41132;47.162;9.470;2023-04-05T09:11:49;96701.19;;;7.70;52.28
55271;BME280;41132;47.162;9.470;2023-04-05T09:14:16;96688.69;;;7.83;54.28
55271;BME280;41132;47.162;9.470;2023-04-05T09:16:42;96691.13;;;7.65;54.78
55271;BME280;41132;47.162;9.470;2023-04-05T09:19:08;96687.09;;;8.02;54.22
55271;BME280;41132;47.162;9.470;2023-04-05T09:22:00;96689.28;;;7.56;53.71
55271;BME280;41132;47.162;9.470;2023-04-05T09:24:36;96683.72;;;7.80;55.34
55271;BME280;41132;47.162;9.470;2023-04-05T09:27:15;96680.00;;;7.73;54.48
55271;BME280;41132;47.162;9.470;2023-04-05T09:29:44;96685.88;;;8.25;51.80
55271;BME280;41132;47.162;9.470;2023-04-05T09:32:10;96691.28;;;8.72;52.50
55271;BME280;41132;47.162;9.470;2023-04-05T09:34:37;96690.84;;;8.67;54.89
55271;BME280;41132;47.162;9.470;2023-04-05T09:37:11;96686.41;;;9.07;53.26
55271;BME280;41132;47.162;9.470;2023-04-05T09:39:38;96691.25;;;8.82;53.67
55271;BME280;41132;47.162;9.470;2023-04-05T09:44:54;96681.75;;;9.38;55.23
55271;BME280;41132;47.162;9.470;2023-04-05T09:47:25;96685.13;;;9.20;55.58
55271;BME280;41132;47.162;9.470;2023-04-05T09:49:54;96683.56;;;9.65;54.61
55271;BME280;41132;47.162;9.470;2023-04-05T09:52:25;96669.22;;;9.87;54.84
55271;BME280;41132;47.162;9.470;2023-04-05T09:54:52;96673.41;;;9.80;56.03
55271;BME280;41132;47.162;9.470;2023-04-05T09:57:21;96678.78;;;9.51;55.46
55271;BME280;41132;47.162;9.470;2023-04-05T09:59:47;96668.47;;;10.22;55.28
55271;BME280;41132;47.162;9.470;2023-04-05T10:02:13;96673.72;;;10.22;56.12
55271;BME280;41132;47.162;9.470;2023-04-05T10:04:41;96679.59;;;9.89;54.78
55271;BME280;41132;47.162;9.470;2023-04-05T10:07:09;96678.69;;;9.98;53.12
55271;BME280;41132;47.162;9.470;2023-04-05T10:09:37;96681.88;;;10.01;53.68
55271;BME280;41132;47.162;9.470;2023-04-05T10:12:04;96677.97;;;9.50;52.36
55271;BME280;41132;47.162;9.470;2023-04-05T10:14:30;96670.34;;;9.29;54.09
55271;BME280;41132;47.162;9.470;2023-04-05T10:17:03;96653.75;;;9.66;53.83
55271;BME280;41132;47.162;9.470;2023-04-05T10:19:40;96675.09;;;9.44;55.29
55271;BME280;41132;47.162;9.470;2023-04-05T10:22:28;96658.50;;;10.44;55.22
55271;BME280;41132;47.162;9.470;2023-04-05T10:25:12;96662.56;;;10.38;49.05
55271;BME280;41132;47.162;9.470;2023-04-05T10:27:46;96662.03;;;10.71;52.49
55271;BME280;41132;47.162;9.470;2023-04-05T10:30:12;96665.31;;;10.19;50.15
55271;BME280;41132;47.162;9.470;2023-04-05T10:32:43;96666.00;;;10.57;50.89
55271;BME280;41132;47.162;9.470;2023-04-05T10:35:20;96662.81;;;9.99;47.74
55271;BME280;41132;47.162;9.470;2023-04-05T10:40:36;96663.44;;;9.66;52.51
55271;BME280;41132;47.162;9.470;2023-04-05T10:43:03;96649.13;;;10.23;51.15
55271;BME280;41132;47.162;9.470;2023-04-05T10:45:31;96661.69;;;9.47;50.09
55271;BME280;41132;47.162;9.470;2023-04-05T10:48:05;96655.31;;;9.59;49.06
55271;BME280;41132;47.162;9.470;2023-04-05T10:50:35;96660.41;;;9.60;50.70
55271;BME280;41132;47.162;9.470;2023-04-05T10:53:01;96660.63;;;9.49;51.35
55271;BME280;41132;47.162;9.470;2023-04-05T10:55:27;96661.44;;;9.77;51.73
55271;BME280;41132;47.162;9.470;2023-04-05T10:57:53;96654.59;;;9.39;51.03
55271;BME280;41132;47.162;9.470;2023-04-05T11:00:21;96657.50;;;9.36;50.28
55271;BME280;41132;47.162;9.470;2023-04-05T11:02:48;96663.56;;;9.36;52.95
55271;BME280;41132;47.162;9.470;2023-04-05T11:05:34;96650.16;;;9.39;53.76
55271;BME280;41132;47.162;9.470;2023-04-05T11:08:10;96655.63;;;9.18;54.56
55271;BME280;41132;47.162;9.470;2023-04-05T11:10:38;96665.44;;;9.07;55.36
55271;BME280;41132;47.162;9.470;2023-04-05T11:13:05;96674.72;;;9.29;55.09
55271;BME280;41132;47.162;9.470;2023-04-05T11:15:31;96670.72;;;8.97;54.03
55271;BME280;41132;47.162;9.470;2023-04-05T11:18:01;96670.34;;;8.63;52.18
55271;BME280;41132;47.162;9.470;2023-04-05T11:20:38;96670.47;;;8.71;53.42
55271;BME280;41132;47.162;9.470;2023-04-05T11:23:05;96658.59;;;8.76;54.62
55271;BME280;41132;47.162;9.470;2023-04-05T11:25:30;96660.66;;;8.83;53.96
55271;BME280;41132;47.162;9.470;2023-04-05T11:28:00;96652.44;;;8.68;54.31
55271;BME280;41132;47.162;9.470;2023-04-05T11:30:48;96650.66;;;8.49;53.04
55271;BME280;41132;47.162;9.470;2023-04-05T11:33:37;96651.47;;;8.20;51.88
55271;BME280;41132;47.162;9.470;2023-04-05T11:36:03;96653.78;;;8.33;53.90
55271;BME280;41132;47.162;9.470;2023-04-05T11:38:28;96654.63;;;8.24;53.93
55271;BME280;41132;47.162;9.470;2023-04-05T11:41:14;96656.97;;;8.17;53.53
55271;BME280;41132;47.162;9.470;2023-04-05T11:43:42;96650.38;;;8.13;53.63
55271;BME280;41132;47.162;9.470;2023-04-05T11:46:07;96646.09;;;8.12;52.57
55271;BME280;41132;47.162;9.470;2023-04-05T11:48:33;96642.78;;;8.10;50.84
55271;BME280;41132;47.162;9.470;2023-04-05T11:50:59;96646.38;;;8.09;53.22
55271;BME280;41132;47.162;9.470;2023-04-05T11:53:24;96638.78;;;8.35;54.45
55271;BME280;41132;47.162;9.470;2023-04-05T11:55:50;96633.16;;;8.10;53.52
55271;BME280;41132;47.162;9.470;2023-04-05T11:58:21;96642.09;;;8.37;54.36
55271;BME280;41132;47.162;9.470;2023-04-05T12:01:03;96637.28;;;8.32;54.19
55271;BME280;41132;47.162;9.470;2023-04-05T12:03:30;96632.88;;;8.33;53.15
55271;BME280;41132;47.162;9.470;2023-04-05T12:05:57;96622.31;;;8.44;55.99
55271;BME280;41132;47.162;9.470;2023-04-05T12:08:23;96617.75;;;8.46;51.76
55271;BME280;41132;47.162;9.470;2023-04-05T12:11:01;96625.03;;;8.33;52.82
55271;BME280;41132;47.162;9.470;2023-04-05T12:13:33;96628.75;;;8.60;53.51
55271;BME280;41132;47.162;9.470;2023-04-05T12:16:03;96619.69;;;8.25;51.23
55271;BME280;41132;47.162;9.470;2023-04-05T12:18:31;96615.94;;;8.08;51.94
55271;BME280;41132;47.162;9.470;2023-04-05T12:20:57;96620.63;;;8.14;51.58
55271;BME280;41132;47.162;9.470;2023-04-05T12:23:23;96619.94;;;8.22;48.81
55271;BME280;41132;47.162;9.470;2023-04-05T12:25:50;96592.97;;;8.21;50.16
55271;BME280;41132;47.162;9.470;2023-04-05T12:28:17;96610.19;;;8.14;48.81
55271;BME280;41132;47.162;9.470;2023-04-05T12:30:53;96608.53;;;8.42;50.64
55271;BME280;41132;47.162;9.470;2023-04-05T12:33:32;96607.41;;;8.35;49.88
55271;BME280;41132;47.162;9.470;2023-04-05T12:36:03;96604.28;;;8.41;50.29
55271;BME280;41132;47.162;9.470;2023-04-05T12:38:29;96598.47;;;8.28;49.58
55271;BME280;41132;47.162;9.470;2023-04-05T12:40:59;96605.94;;;8.13;46.94
55271;BME280;41132;47.162;9.470;2023-04-05T12:43:25;96602.75;;;8.00;48.71
55271;BME280;41132;47.162;9.470;2023-04-05T12:45:53;96608.09;;;8.37;49.19
55271;BME280;41132;47.162;9.470;2023-04-05T12:48:22;96608.25;;;8.16;48.37
55271;BME280;41132;47.162;9.470;2023-04-05T12:50:50;96598.75;;;8.25;47.61
55271;BME280;41132;47.162;9.470;2023-04-05T12:53:23;96608.94;;;8.18;48.55
55271;BME280;41132;47.162;9.470;2023-04-05T12:55:57;96595.72;;;8.20;49.45
55271;BME280;41132;47.162;9.470;2023-04-05T12:58:35;96580.72;;;8.22;50.64
55271;BME280;41132;47.162;9.470;2023-04-05T13:01:02;96593.09;;;8.49;51.97
55271;BME280;41132;47.162;9.470;2023-04-05T13:03:28;96591.59;;;8.66;54.47
55271;BME280;41132;47.162;9.470;2023-04-05T13:05:54;96587.63;;;8.52;52.76
55271;BME280;41132;47.162;9.470;2023-04-05T13:08:19;96588.31;;;8.44;50.32
55271;BME280;41132;47.162;9.470;2023-04-05T13:10:46;96575.91;;;8.27;50.21
55271;BME280;41132;47.162;9.470;2023-04-05T13:13:13;96573.59;;;8.33;47.35
55271;BME280;41132;47.162;9.470;2023-04-05T13:15:38;96581.13;;;8.36;45.72
55271;BME280;41132;47.162;9.470;2023-04-05T13:18:04;96575.34;;;8.33;43.16
55271;BME280;41132;47.162;9.470;2023-04-05T13:20:30;96577.56;;;8.47;47.54
55271;BME280;41132;47.162;9.470;2023-04-05T13:22:55;96569.03;;;8.45;47.66
55271;BME280;41132;47.162;9.470;2023-04-05T13:25:20;96566.84;;;8.41;48.12